Time;durP1;ratioP1;P1;durP2;ratioP2;P2;SDS_P1;SDS_P2;PMS_P1;PMS_P2;Temp;Humidity;BMP_temperature;BMP_pressure;BME280_temperature;BME280_humidity;BME280_pressure;Samples;Min_cycle;Max_cycle;Signal;HPM_P1;HPM_P2
2021/08/09 00:00:30;;;;;;;;;;;15.20;99.90;;;;;;5018418;28;19996;-84
2021/08/09 00:02:55;;;;;;;;;;;15.20;99.90;;;;;;5028074;28;20370;-84
2021/08/09 00:05:21;;;;;;;;;;;15.20;99.90;;;;;;5040751;28;20013;-85
2021/08/09 00:07:46;;;;;;;;;;;15.20;99.90;;;;;;5041082;28;20538;-85
2021/08/09 00:10:12;;;;;;;;;;;15.20;99.90;;;;;;5042973;28;19909;-85
2021/08/09 00:12:38;;;;;;;;;;;15.10;99.90;;;;;;5036321;28;19924;-85
2021/08/09 00:15:03;;;;;;;;;;;15.00;99.90;;;;;;5032259;28;20199;-83
2021/08/09 00:17:29;;;;;;;;;;;15.10;99.90;;;;;;5039399;28;19931;-84
2021/08/09 00:19:54;;;;;;;;;;;15.10;99.90;;;;;;5034156;28;20296;-84
2021/08/09 00:22:20;;;;;;;;;;;15.00;99.90;;;;;;5033575;28;19909;-85
2021/08/09 00:24:45;;;;;;;;;;;15.00;99.90;;;;;;5041098;28;19932;-84
2021/08/09 00:27:11;;;;;;;;;;;15.00;99.90;;;;;;5018722;28;19981;-84
2021/08/09 00:29:36;;;;;;;;;;;15.00;99.90;;;;;;5030317;28;19909;-85
2021/08/09 00:32:02;;;;;;;;;;;15.00;99.90;;;;;;5033522;28;19928;-85
2021/08/09 00:34:27;;;;;;;;;;;15.00;99.90;;;;;;5040685;28;19909;-85
2021/08/09 00:36:53;;;;;;;;;;;14.90;99.90;;;;;;5034211;28;19914;-83
2021/08/09 00:39:19;;;;;;;;;;;14.90;99.90;;;;;;5040396;28;19996;-85
2021/08/09 00:41:44;;;;;;;;;;;15.00;99.90;;;;;;5038400;28;19913;-85
2021/08/09 00:44:10;;;;;;;;;;;14.90;99.90;;;;;;5041553;28;19913;-85
2021/08/09 00:46:35;;;;;;;;;;;15.00;99.90;;;;;;5039378;28;19921;-85
2021/08/09 00:49:01;;;;;;;;;;;15.00;99.90;;;;;;5031028;28;20008;-84
2021/08/09 00:51:26;;;;;;;;;;;15.00;99.90;;;;;;5030151;28;19913;-85
2021/08/09 00:53:52;;;;;;;;;;;15.00;99.90;;;;;;5040315;28;19917;-84
2021/08/09 00:56:17;;;;;;;;;;;14.90;99.90;;;;;;5043798;28;19980;-85
2021/08/09 00:58:43;;;;;;;;;;;14.90;99.90;;;;;;5040447;28;19917;-85
2021/08/09 01:01:09;;;;;;;;;;;15.00;99.90;;;;;;5043727;28;20003;-85
2021/08/09 01:03:34;;;;;;;;;;;14.90;99.90;;;;;;5021708;28;19944;-85
2021/08/09 01:06:00;;;;;;;;;;;14.90;99.90;;;;;;5041097;28;19925;-85
2021/08/09 01:08:34;;;;;;;;;;;15.00;99.90;;;;;;5036579;28;19913;-85
2021/08/09 01:11:21;;;;;;;;;;;15.00;99.90;;;;;;5043434;28;19924;-85
2021/08/09 01:13:54;;;;;;;;;;;15.00;99.90;;;;;;5028956;28;19918;-85
2021/08/09 01:16:26;;;;;;;;;;;14.90;99.90;;;;;;5039041;28;19917;-84
2021/08/09 01:18:52;;;;;;;;;;;14.90;99.90;;;;;;5025148;28;19920;-85
2021/08/09 01:21:19;;;;;;;;;;;14.80;99.90;;;;;;5030682;28;19933;-85
2021/08/09 01:23:47;;;;;;;;;;;14.90;99.90;;;;;;5036679;28;19967;-85
2021/08/09 01:26:19;;;;;;;;;;;14.90;99.90;;;;;;5043182;28;19913;-84
2021/08/09 01:28:45;;;;;;;;;;;15.00;99.90;;;;;;5038750;28;19921;-84
2021/08/09 01:31:12;;;;;;;;;;;15.00;99.90;;;;;;5035723;28;19919;-85
2021/08/09 01:33:38;;;;;;;;;;;15.00;99.90;;;;;;5017660;28;19913;-84
2021/08/09 01:36:04;;;;;;;;;;;15.10;99.90;;;;;;5041858;28;19932;-85
2021/08/09 01:38:30;;;;;;;;;;;15.10;99.90;;;;;;5013859;28;20297;-85
2021/08/09 01:40:56;;;;;;;;;;;15.20;99.90;;;;;;5041584;28;19944;-85
2021/08/09 01:43:23;;;;;;;;;;;15.10;99.90;;;;;;5041100;28;19913;-85
2021/08/09 01:45:48;;;;;;;;;;;15.20;99.90;;;;;;5042380;28;19913;-85
2021/08/09 01:48:14;;;;;;;;;;;15.20;99.90;;;;;;5039353;28;20361;-85
2021/08/09 01:50:40;;;;;;;;;;;15.30;99.90;;;;;;5034861;28;20357;-85
2021/08/09 01:53:07;;;;;;;;;;;15.30;99.90;;;;;;5030879;28;19913;-85
2021/08/09 01:55:32;;;;;;;;;;;15.30;99.90;;;;;;5057054;28;19920;-84
2021/08/09 01:57:58;;;;;;;;;;;15.30;99.90;;;;;;5041094;28;19913;-84
2021/08/09 02:00:23;;;;;;;;;;;15.30;99.90;;;;;;5039503;28;19908;-85
2021/08/09 02:02:51;;;;;;;;;;;15.40;99.90;;;;;;5049574;28;19928;-84
2021/08/09 02:05:17;;;;;;;;;;;15.30;99.90;;;;;;5036710;28;19936;-85
2021/08/09 02:07:47;;;;;;;;;;;15.40;99.90;;;;;;5038613;28;19928;-85
2021/08/09 02:10:15;;;;;;;;;;;15.50;99.90;;;;;;5038585;28;19913;-84
2021/08/09 02:12:53;;;;;;;;;;;15.40;99.90;;;;;;5033589;28;19913;-85
2021/08/09 02:15:21;;;;;;;;;;;15.40;99.90;;;;;;5041584;28;19913;-84
2021/08/09 02:17:50;;;;;;;;;;;15.30;99.90;;;;;;5042762;28;19921;-85
2021/08/09 02:20:29;;;;;;;;;;;15.40;99.90;;;;;;5031198;28;19985;-85
2021/08/09 02:22:57;;;;;;;;;;;15.30;99.90;;;;;;5033270;28;19913;-86
2021/08/09 02:25:24;;;;;;;;;;;15.30;99.90;;;;;;5033224;28;20145;-85
2021/08/09 02:27:53;;;;;;;;;;;15.30;99.90;;;;;;5042807;28;19921;-85
2021/08/09 02:30:19;;;;;;;;;;;15.30;99.90;;;;;;5023415;28;19913;-85
2021/08/09 02:32:46;;;;;;;;;;;15.30;99.90;;;;;;5040314;28;19913;-85
2021/08/09 02:35:15;;;;;;;;;;;15.30;99.90;;;;;;5041715;28;19909;-84
2021/08/09 02:37:41;;;;;;;;;;;15.30;99.90;;;;;;5035679;28;20396;-85
2021/08/09 02:40:07;;;;;;;;;;;15.20;99.90;;;;;;5043654;28;19909;-85
2021/08/09 02:42:33;;;;;;;;;;;15.20;99.90;;;;;;5037794;28;19920;-84
2021/08/09 02:44:59;;;;;;;;;;;15.30;99.90;;;;;;5043477;28;19914;-85
2021/08/09 02:47:25;;;;;;;;;;;15.30;99.90;;;;;;5017477;28;19917;-84
2021/08/09 02:49:50;;;;;;;;;;;15.20;99.90;;;;;;5019459;28;19913;-84
2021/08/09 02:52:17;;;;;;;;;;;15.20;99.90;;;;;;5023522;28;19913;-83
2021/08/09 02:54:45;;;;;;;;;;;15.20;99.90;;;;;;5028920;28;19963;-85
2021/08/09 02:57:12;;;;;;;;;;;15.20;99.90;;;;;;5024989;28;20446;-84
2021/08/09 02:59:38;;;;;;;;;;;15.20;99.90;;;;;;5034981;28;20387;-84
2021/08/09 03:02:05;;;;;;;;;;;15.20;99.90;;;;;;5025815;28;19963;-83
2021/08/09 03:04:31;;;;;;;;;;;15.20;99.90;;;;;;5013435;28;19913;-83
2021/08/09 03:06:56;;;;;;;;;;;15.20;99.90;;;;;;5030387;28;19987;-85
2021/08/09 03:09:22;;;;;;;;;;;15.20;99.90;;;;;;5029201;28;19913;-83
2021/08/09 03:11:47;;;;;;;;;;;15.20;99.90;;;;;;5009813;28;19913;-84
2021/08/09 03:14:22;;;;;;;;;;;15.20;99.90;;;;;;5023630;28;19917;-85
2021/08/09 03:16:49;;;;;;;;;;;15.20;99.90;;;;;;5036771;28;19913;-83
2021/08/09 03:19:14;;;;;;;;;;;15.20;99.90;;;;;;5038039;28;19916;-84
2021/08/09 03:21:47;;;;;;;;;;;15.20;99.90;;;;;;5030448;28;19992;-84
2021/08/09 03:24:13;;;;;;;;;;;15.20;99.90;;;;;;5024776;28;19917;-84
2021/08/09 03:26:38;;;;;;;;;;;15.10;99.90;;;;;;5033119;28;20421;-84
2021/08/09 03:29:04;;;;;;;;;;;15.10;99.90;;;;;;5035794;28;19918;-84
2021/08/09 03:31:29;;;;;;;;;;;15.10;99.90;;;;;;5036251;28;19976;-84
2021/08/09 03:33:55;;;;;;;;;;;15.10;99.90;;;;;;5006266;28;19914;-85
2021/08/09 03:36:20;;;;;;;;;;;15.00;99.90;;;;;;5041367;28;20430;-84
2021/08/09 03:38:46;;;;;;;;;;;15.10;99.90;;;;;;5030052;28;19924;-85
2021/08/09 03:41:11;;;;;;;;;;;15.00;99.90;;;;;;5040347;28;20003;-85
2021/08/09 03:43:36;;;;;;;;;;;15.00;99.90;;;;;;5040047;28;19913;-85
2021/08/09 03:46:02;;;;;;;;;;;15.00;99.90;;;;;;5039225;28;19936;-85
2021/08/09 03:48:27;;;;;;;;;;;15.00;99.90;;;;;;5023917;28;19932;-85
2021/08/09 03:50:53;;;;;;;;;;;15.10;99.90;;;;;;5041412;28;19913;-85
2021/08/09 03:53:18;;;;;;;;;;;15.00;99.90;;;;;;5038381;28;19996;-85
2021/08/09 03:55:44;;;;;;;;;;;15.00;99.90;;;;;;5040802;28;19948;-85
2021/08/09 03:58:09;;;;;;;;;;;15.00;99.90;;;;;;5040040;28;19975;-84
2021/08/09 04:00:37;;;;;;;;;;;15.00;99.90;;;;;;5040436;28;19913;-85
2021/08/09 04:03:03;;;;;;;;;;;15.00;99.90;;;;;;5040379;28;19920;-84
2021/08/09 04:05:29;;;;;;;;;;;15.00;99.90;;;;;;5034155;28;19914;-85
2021/08/09 04:07:54;;;;;;;;;;;15.00;99.90;;;;;;5041857;28;19917;-85
2021/08/09 04:10:20;;;;;;;;;;;15.00;99.90;;;;;;5043982;28;19913;-85
2021/08/09 04:12:46;;;;;;;;;;;15.10;99.90;;;;;;5045034;28;20419;-84
2021/08/09 04:15:11;;;;;;;;;;;15.00;99.90;;;;;;5042021;28;19977;-85
2021/08/09 04:17:36;;;;;;;;;;;15.10;99.90;;;;;;5043058;28;19920;-85
2021/08/09 04:20:02;;;;;;;;;;;15.00;99.90;;;;;;5041358;28;20003;-84
2021/08/09 04:22:27;;;;;;;;;;;15.10;99.90;;;;;;5028796;28;19920;-84
2021/08/09 04:24:53;;;;;;;;;;;15.10;99.90;;;;;;5032770;28;19957;-84
2021/08/09 04:27:18;;;;;;;;;;;15.10;99.90;;;;;;5051287;28;19925;-84
2021/08/09 04:29:44;;;;;;;;;;;15.10;99.90;;;;;;5010314;28;19913;-85
2021/08/09 04:32:16;;;;;;;;;;;15.10;99.90;;;;;;5037423;28;20016;-84
2021/08/09 04:34:42;;;;;;;;;;;15.10;99.90;;;;;;5037911;28;19940;-84
2021/08/09 04:37:07;;;;;;;;;;;15.10;99.90;;;;;;5055067;28;19921;-84
2021/08/09 04:39:33;;;;;;;;;;;15.10;99.90;;;;;;5023059;28;19943;-84
2021/08/09 04:41:58;;;;;;;;;;;15.20;99.90;;;;;;5031390;28;19917;-84
2021/08/09 04:44:24;;;;;;;;;;;15.10;99.90;;;;;;5038158;28;19913;-84
2021/08/09 04:46:49;;;;;;;;;;;15.10;99.90;;;;;;5038650;28;20403;-84
2021/08/09 04:49:15;;;;;;;;;;;15.10;99.90;;;;;;5033001;28;19963;-84
2021/08/09 04:51:40;;;;;;;;;;;15.10;99.90;;;;;;5038928;28;19920;-84
2021/08/09 04:54:06;;;;;;;;;;;15.20;99.90;;;;;;5032186;28;19952;-84
2021/08/09 04:56:31;;;;;;;;;;;15.20;99.90;;;;;;5036340;28;19909;-83
2021/08/09 04:58:56;;;;;;;;;;;15.20;99.90;;;;;;5041519;28;20325;-84
2021/08/09 05:01:22;;;;;;;;;;;15.20;99.90;;;;;;5032622;28;19959;-84
2021/08/09 05:03:47;;;;;;;;;;;15.10;99.90;;;;;;5032607;28;19921;-84
2021/08/09 05:06:14;;;;;;;;;;;15.20;99.90;;;;;;5047733;28;19916;-85
2021/08/09 05:08:39;;;;;;;;;;;15.30;99.90;;;;;;5041084;28;19917;-85
2021/08/09 05:11:04;;;;;;;;;;;15.30;99.90;;;;;;5025345;28;20388;-85
2021/08/09 05:13:30;;;;;;;;;;;15.40;99.90;;;;;;5039976;28;19913;-85
2021/08/09 05:15:56;;;;;;;;;;;15.40;99.90;;;;;;5044228;28;19909;-85
2021/08/09 05:18:21;;;;;;;;;;;15.40;99.90;;;;;;5044007;28;19920;-84
2021/08/09 05:20:47;;;;;;;;;;;15.40;99.90;;;;;;5043123;28;19972;-84
2021/08/09 05:23:16;;;;;;;;;;;15.50;99.90;;;;;;5038605;28;19921;-84
2021/08/09 05:25:41;;;;;;;;;;;15.60;99.90;;;;;;5043069;28;20010;-85
2021/08/09 05:28:07;;;;;;;;;;;15.50;99.90;;;;;;5044438;28;19921;-85
2021/08/09 05:30:32;;;;;;;;;;;15.60;99.90;;;;;;5024986;28;19933;-85
2021/08/09 05:32:59;;;;;;;;;;;15.60;99.90;;;;;;5031538;28;20124;-85
2021/08/09 05:35:24;;;;;;;;;;;15.60;99.90;;;;;;5039367;28;20006;-85
2021/08/09 05:37:50;;;;;;;;;;;15.60;99.90;;;;;;5039545;28;19917;-85
2021/08/09 05:40:18;;;;;;;;;;;15.60;99.90;;;;;;5023841;28;19914;-85
2021/08/09 05:43:03;;;;;;;;;;;15.70;99.90;;;;;;5031708;28;19913;-84
2021/08/09 05:45:28;;;;;;;;;;;15.70;99.90;;;;;;5038651;28;19917;-84
2021/08/09 05:47:54;;;;;;;;;;;15.70;99.90;;;;;;5037807;28;19917;-85
2021/08/09 05:50:22;;;;;;;;;;;15.80;99.90;;;;;;5015135;28;19913;-84
2021/08/09 05:52:47;;;;;;;;;;;15.90;99.90;;;;;;5038553;28;20023;-85
2021/08/09 05:55:34;;;;;;;;;;;15.90;99.90;;;;;;5027075;28;19913;-86
2021/08/09 05:58:05;;;;;;;;;;;16.00;99.90;;;;;;5032627;28;19921;-85
2021/08/09 06:00:33;;;;;;;;;;;16.00;99.90;;;;;;5034008;28;19913;-85
2021/08/09 06:03:12;;;;;;;;;;;;;;;;;;;;;
2021/08/09 06:05:43;;;;;;;;;;;16.10;99.90;;;;;;5027136;28;19914;-85
2021/08/09 06:08:08;;;;;;;;;;;16.20;99.90;;;;;;5031453;28;19921;-86
2021/08/09 06:10:34;;;;;;;;;;;16.30;99.90;;;;;;5023980;28;19920;-85
2021/08/09 06:13:01;;;;;;;;;;;16.30;99.90;;;;;;5018176;28;20019;-85
2021/08/09 06:15:27;;;;;;;;;;;16.50;99.90;;;;;;5013609;28;19917;-86
2021/08/09 06:17:52;;;;;;;;;;;16.50;99.90;;;;;;5033178;28;19920;-85
2021/08/09 06:20:20;;;;;;;;;;;16.50;99.90;;;;;;5008128;28;19913;-85
2021/08/09 06:22:48;;;;;;;;;;;16.70;99.90;;;;;;5021219;28;19909;-85
2021/08/09 06:25:16;;;;;;;;;;;16.80;99.90;;;;;;5034971;28;20266;-85
2021/08/09 06:27:56;;;;;;;;;;;16.90;99.90;;;;;;5034339;28;20388;-86
2021/08/09 06:31:05;;;;;;;;;;;17.00;99.90;;;;;;5034194;28;19914;-86
2021/08/09 06:36:36;;;;;;;;;;;17.20;99.90;;;;;;5011344;28;20468;-86
2021/08/09 06:42:02;;;;;;;;;;;;;;;;;;;;;
2021/08/09 06:44:45;;;;;;;;;;;;;;;;;;;;;
2021/08/09 06:47:16;;;;;;;;;;;17.40;99.90;;;;;;5016375;28;19921;-86
2021/08/09 06:49:44;;;;;;;;;;;17.40;99.90;;;;;;5029503;28;19913;-86
2021/08/09 06:52:12;;;;;;;;;;;17.50;99.90;;;;;;5025040;28;19917;-87
2021/08/09 06:54:37;;;;;;;;;;;17.50;99.90;;;;;;5046878;28;20487;-86
2021/08/09 06:57:05;;;;;;;;;;;17.50;99.90;;;;;;5027379;28;19970;-86
2021/08/09 06:59:35;;;;;;;;;;;17.70;99.90;;;;;;5025847;28;20403;-86
2021/08/09 07:02:03;;;;;;;;;;;17.80;99.90;;;;;;5034758;28;20279;-86
2021/08/09 07:04:31;;;;;;;;;;;18.00;99.90;;;;;;5034723;28;20450;-86
2021/08/09 07:06:59;;;;;;;;;;;18.30;99.90;;;;;;5026247;28;19917;-86
2021/08/09 07:09:27;;;;;;;;;;;18.80;99.90;;;;;;5031954;28;19913;-86
2021/08/09 07:11:55;;;;;;;;;;;20.10;99.90;;;;;;5032096;28;19909;-86
2021/08/09 07:14:24;;;;;;;;;;;21.90;99.90;;;;;;5032181;28;20377;-87
2021/08/09 07:16:50;;;;;;;;;;;23.30;99.90;;;;;;5025122;28;19917;-87
2021/08/09 07:19:23;;;;;;;;;;;24.00;99.90;;;;;;5013534;28;20245;-86
2021/08/09 07:21:57;;;;;;;;;;;24.50;99.90;;;;;;5023410;28;19912;-87
2021/08/09 07:24:55;;;;;;;;;;;;;;;;;;;;;
2021/08/09 07:27:30;;;;;;;;;;;25.50;99.90;;;;;;5027083;28;19925;-87
2021/08/09 07:30:25;;;;;;;;;;;;;;;;;;;;;
2021/08/09 07:32:53;;;;;;;;;;;27.20;99.50;;;;;;5024300;28;19924;-88
2021/08/09 07:35:39;;;;;;;;;;;30.60;92.90;;;;;;5024224;28;20368;-87
2021/08/09 07:38:07;;;;;;;;;;;33.00;84.60;;;;;;5032153;28;20308;-88
2021/08/09 07:40:50;;;;;;;;;;;35.10;73.60;;;;;;5015485;28;19952;-87
2021/08/09 07:43:15;;;;;;;;;;;34.50;69.20;;;;;;5011313;28;19921;-87
2021/08/09 07:45:41;;;;;;;;;;;34.00;68.20;;;;;;5033449;28;19928;-89
2021/08/09 07:48:06;;;;;;;;;;;34.00;68.10;;;;;;5031817;28;19914;-87
2021/08/09 07:50:32;;;;;;;;;;;34.90;67.20;;;;;;5035020;28;19913;-87
2021/08/09 07:52:57;;;;;;;;;;;36.70;63.80;;;;;;5028722;28;20374;-87
2021/08/09 07:55:25;;;;;;;;;;;38.30;59.90;;;;;;5035621;28;19983;-86
2021/08/09 07:57:51;;;;;;;;;;;39.70;57.20;;;;;;5034657;28;19921;-85
2021/08/09 08:00:21;;;;;;;;;;;41.40;54.90;;;;;;5014993;28;20395;-85
2021/08/09 08:02:54;;;;;;;;;;;42.70;52.20;;;;;;5032645;28;19991;-85
2021/08/09 08:05:24;;;;;;;;;;;43.80;50.40;;;;;;5029239;28;19913;-86
2021/08/09 08:07:52;;;;;;;;;;;45.00;48.00;;;;;;5031634;28;19909;-85
2021/08/09 08:13:42;;;;;;;;;;;46.80;45.50;;;;;;5013291;28;19920;-85
2021/08/09 08:19:08;;;;;;;;;;;48.90;42.50;;;;;;5023212;28;19960;-85
2021/08/09 08:24:22;;;;;;;;;;;49.40;40.20;;;;;;5024627;28;19967;-85
2021/08/09 08:26:50;;;;;;;;;;;49.20;39.50;;;;;;5030699;28;20365;-84
2021/08/09 08:29:36;;;;;;;;;;;48.90;39.10;;;;;;5016164;28;19909;-85
2021/08/09 08:32:14;;;;;;;;;;;;;;;;;;;;;
2021/08/09 08:34:40;;;;;;;;;;;48.90;37.80;;;;;;5031618;28;19909;-84
2021/08/09 08:37:08;;;;;;;;;;;48.10;37.80;;;;;;5045873;28;20612;-84
2021/08/09 08:39:33;;;;;;;;;;;46.80;38.10;;;;;;5030990;28;19959;-85
2021/08/09 08:41:59;;;;;;;;;;;45.80;39.70;;;;;;5031872;28;19917;-84
2021/08/09 08:44:25;;;;;;;;;;;46.00;39.50;;;;;;5031774;28;19976;-83
2021/08/09 08:46:59;;;;;;;;;;;45.30;39.20;;;;;;5030740;28;19956;-83
2021/08/09 08:49:26;;;;;;;;;;;43.20;40.80;;;;;;5030325;28;20499;-84
2021/08/09 08:51:51;;;;;;;;;;;41.70;41.70;;;;;;5028723;28;20274;-84
2021/08/09 08:54:17;;;;;;;;;;;40.30;43.00;;;;;;4995792;28;19946;-84
2021/08/09 08:56:44;;;;;;;;;;;39.40;42.80;;;;;;5032290;28;19939;-84
2021/08/09 08:59:18;;;;;;;;;;;39.30;43.20;;;;;;5033909;28;20281;-84
2021/08/09 09:01:48;;;;;;;;;;;39.70;41.60;;;;;;5032589;28;19915;-84
2021/08/09 09:04:19;;;;;;;;;;;37.30;42.80;;;;;;5016301;28;20016;-83
2021/08/09 09:06:45;;;;;;;;;;;35.20;44.50;;;;;;5027541;28;20400;-83
2021/08/09 09:09:21;;;;;;;;;;;34.10;45.50;;;;;;5025318;28;19913;-83
2021/08/09 09:11:47;;;;;;;;;;;34.10;45.00;;;;;;5035722;28;20047;-85
2021/08/09 09:14:12;;;;;;;;;;;33.90;44.80;;;;;;5043309;28;19913;-86
2021/08/09 09:16:45;;;;;;;;;;;33.10;45.20;;;;;;5041961;28;20485;-85
2021/08/09 09:19:10;;;;;;;;;;;32.50;45.90;;;;;;5047460;28;19958;-85
2021/08/09 09:21:42;;;;;;;;;;;31.90;46.20;;;;;;5027928;28;20373;-85
2021/08/09 09:24:10;;;;;;;;;;;31.20;46.30;;;;;;5036890;28;19913;-86
2021/08/09 09:26:37;;;;;;;;;;;30.50;46.70;;;;;;5051192;28;19921;-86
2021/08/09 09:29:07;;;;;;;;;;;29.90;47.30;;;;;;5024548;28;19909;-85
2021/08/09 09:31:33;;;;;;;;;;;29.30;47.40;;;;;;5025151;28;19920;-86
2021/08/09 09:34:02;;;;;;;;;;;28.70;47.90;;;;;;5034602;28;19999;-85
2021/08/09 09:36:29;;;;;;;;;;;28.30;48.20;;;;;;5033299;28;20016;-85
2021/08/09 09:38:54;;;;;;;;;;;27.90;48.30;;;;;;5034830;28;19929;-85
2021/08/09 09:41:21;;;;;;;;;;;27.50;48.50;;;;;;5035485;28;20539;-85
2021/08/09 09:43:47;;;;;;;;;;;27.20;48.80;;;;;;5038627;28;19974;-85
2021/08/09 09:46:26;;;;;;;;;;;27.20;48.90;;;;;;5036301;28;19928;-85
2021/08/09 09:48:56;;;;;;;;;;;27.40;48.50;;;;;;5036574;28;19917;-86
2021/08/09 09:51:22;;;;;;;;;;;28.30;48.10;;;;;;5035022;28;19912;-86
2021/08/09 09:53:48;;;;;;;;;;;30.60;46.40;;;;;;5035374;28;19913;-86
2021/08/09 09:56:13;;;;;;;;;;;32.20;43.80;;;;;;5034321;28;19960;-86
2021/08/09 09:58:39;;;;;;;;;;;33.70;42.80;;;;;;5037346;28;19962;-85
2021/08/09 10:01:06;;;;;;;;;;;34.10;42.00;;;;;;5028928;28;19913;-86
2021/08/09 10:03:46;;;;;;;;;;;34.80;42.20;;;;;;5033850;28;19996;-84
2021/08/09 10:06:14;;;;;;;;;;;35.70;41.00;;;;;;5023060;28;19960;-86
2021/08/09 10:08:45;;;;;;;;;;;35.60;40.80;;;;;;5034281;28;19913;-87
2021/08/09 10:11:15;;;;;;;;;;;34.90;40.50;;;;;;5034178;28;19913;-87
2021/08/09 10:13:41;;;;;;;;;;;36.00;39.60;;;;;;5039120;28;19917;-86
2021/08/09 10:16:11;;;;;;;;;;;35.70;40.00;;;;;;5018958;28;19914;-84
2021/08/09 10:18:41;;;;;;;;;;;35.70;40.10;;;;;;5033694;28;19913;-85
2021/08/09 10:21:07;;;;;;;;;;;36.50;40.00;;;;;;5032203;28;19932;-85
2021/08/09 10:23:38;;;;;;;;;;;37.80;38.80;;;;;;5037725;28;19913;-84
2021/08/09 10:26:05;;;;;;;;;;;38.00;38.40;;;;;;5043634;28;19913;-85
2021/08/09 10:28:51;;;;;;;;;;;38.70;37.70;;;;;;5025267;28;19918;-84
2021/08/09 10:31:21;;;;;;;;;;;38.70;37.60;;;;;;5035308;28;19952;-83
2021/08/09 10:33:51;;;;;;;;;;;38.20;37.80;;;;;;5036116;28;19992;-85
2021/08/09 10:36:21;;;;;;;;;;;37.70;37.80;;;;;;5034277;28;20001;-84
2021/08/09 10:38:49;;;;;;;;;;;37.70;37.90;;;;;;5014861;28;20340;-85
2021/08/09 10:41:15;;;;;;;;;;;37.30;37.60;;;;;;5033866;28;20012;-84
2021/08/09 10:43:59;;;;;;;;;;;36.10;37.90;;;;;;5034608;28;19964;-84
2021/08/09 10:46:35;;;;;;;;;;;35.50;38.30;;;;;;5052234;28;19994;-84
2021/08/09 10:49:01;;;;;;;;;;;35.10;38.10;;;;;;5054330;28;19919;-85
2021/08/09 10:51:46;;;;;;;;;;;33.80;38.80;;;;;;5032928;28;20012;-85
2021/08/09 10:54:30;;;;;;;;;;;33.90;39.00;;;;;;5034331;28;20434;-85
2021/08/09 10:57:00;;;;;;;;;;;36.10;37.30;;;;;;5038844;28;19909;-86
2021/08/09 10:59:58;;;;;;;;;;;37.50;36.40;;;;;;5041711;28;20362;-86
2021/08/09 11:02:27;;;;;;;;;;;39.20;35.60;;;;;;5016694;28;20285;-85
2021/08/09 11:05:11;;;;;;;;;;;39.40;35.00;;;;;;5032861;28;19956;-85
2021/08/09 11:07:37;;;;;;;;;;;37.90;35.00;;;;;;5033600;28;20373;-86
2021/08/09 11:10:03;;;;;;;;;;;36.50;35.80;;;;;;5035236;28;20012;-87
2021/08/09 11:12:28;;;;;;;;;;;35.10;36.20;;;;;;5048178;28;19912;-85
2021/08/09 11:15:12;;;;;;;;;;;33.60;36.70;;;;;;5053305;28;20463;-85
2021/08/09 11:17:37;;;;;;;;;;;32.60;37.90;;;;;;5034447;28;19920;-85
2021/08/09 11:20:09;;;;;;;;;;;33.60;37.30;;;;;;5037006;28;19913;-85
2021/08/09 11:22:35;;;;;;;;;;;33.20;37.20;;;;;;5038295;28;19920;-79
2021/08/09 11:25:00;;;;;;;;;;;32.70;37.60;;;;;;5027892;28;20277;-79
2021/08/09 11:27:25;;;;;;;;;;;33.60;37.60;;;;;;5041417;28;19912;-79
2021/08/09 11:29:51;;;;;;;;;;;34.00;37.00;;;;;;5046984;28;20204;-79
2021/08/09 11:32:33;;;;;;;;;;;33.50;37.00;;;;;;5047168;28;19916;-79
2021/08/09 11:34:59;;;;;;;;;;;32.70;37.40;;;;;;5056498;28;20389;-79
2021/08/09 11:37:25;;;;;;;;;;;31.90;38.10;;;;;;5044296;28;19971;-78
2021/08/09 11:39:50;;;;;;;;;;;32.40;38.10;;;;;;5036517;28;20504;-79
2021/08/09 11:42:16;;;;;;;;;;;32.40;37.70;;;;;;5034410;28;20288;-79
2021/08/09 11:44:41;;;;;;;;;;;32.50;37.90;;;;;;5042267;28;20011;-79
2021/08/09 11:47:07;;;;;;;;;;;32.60;37.60;;;;;;5036992;28;19909;-79
2021/08/09 11:49:32;;;;;;;;;;;33.00;37.40;;;;;;5035617;28;20348;-79
2021/08/09 11:51:58;;;;;;;;;;;33.00;36.80;;;;;;5033144;28;19948;-79
2021/08/09 11:54:36;;;;;;;;;;;33.10;36.80;;;;;;5035646;28;19909;-78
2021/08/09 11:57:02;;;;;;;;;;;32.60;36.80;;;;;;5021910;28;20016;-79
2021/08/09 11:59:27;;;;;;;;;;;31.90;37.20;;;;;;5048608;28;20523;-79
2021/08/09 12:02:04;;;;;;;;;;;31.30;37.70;;;;;;5045388;28;19913;-79
2021/08/09 12:04:40;;;;;;;;;;;30.70;38.10;;;;;;5052684;28;19913;-79
2021/08/09 12:07:15;;;;;;;;;;;30.10;38.60;;;;;;5052170;28;19904;-79
2021/08/09 12:09:42;;;;;;;;;;;29.50;39.20;;;;;;5049564;28;19959;-78
2021/08/09 12:12:08;;;;;;;;;;;29.30;39.70;;;;;;5035436;28;19917;-79
2021/08/09 12:14:35;;;;;;;;;;;29.20;39.90;;;;;;5019279;28;19923;-79
2021/08/09 12:17:12;;;;;;;;;;;29.50;39.90;;;;;;5038462;28;20405;-78
2021/08/09 12:19:39;;;;;;;;;;;30.30;39.30;;;;;;5054558;28;19913;-79
2021/08/09 12:22:10;;;;;;;;;;;30.20;39.30;;;;;;5052616;28;19917;-80
2021/08/09 12:24:36;;;;;;;;;;;29.90;39.40;;;;;;5054207;28;19915;-78
2021/08/09 12:27:15;;;;;;;;;;;30.30;39.40;;;;;;5055014;28;19942;-79
2021/08/09 12:29:57;;;;;;;;;;;30.50;39.40;;;;;;5022625;28;19913;-79
2021/08/09 12:32:22;;;;;;;;;;;30.90;39.00;;;;;;5027932;28;19917;-80
2021/08/09 12:34:48;;;;;;;;;;;30.50;39.00;;;;;;5040186;28;19913;-79
2021/08/09 12:37:13;;;;;;;;;;;30.50;39.20;;;;;;5037646;28;20301;-79
2021/08/09 12:39:39;;;;;;;;;;;31.00;39.00;;;;;;5039380;28;19960;-79
2021/08/09 12:42:15;;;;;;;;;;;30.90;39.00;;;;;;5043347;28;19920;-79
2021/08/09 12:44:41;;;;;;;;;;;30.60;39.20;;;;;;5054475;28;19913;-79
2021/08/09 12:47:06;;;;;;;;;;;30.30;39.50;;;;;;5041344;28;19913;-80
2021/08/09 12:49:32;;;;;;;;;;;30.00;39.80;;;;;;5039435;28;19921;-79
2021/08/09 12:51:57;;;;;;;;;;;29.40;40.20;;;;;;5038439;28;19939;-79
2021/08/09 12:54:23;;;;;;;;;;;28.60;40.60;;;;;;5039785;28;19913;-78
2021/08/09 12:56:48;;;;;;;;;;;28.00;41.20;;;;;;5035142;28;19920;-78
2021/08/09 12:59:14;;;;;;;;;;;27.60;41.70;;;;;;5040847;28;19920;-78
2021/08/09 13:01:39;;;;;;;;;;;27.80;41.90;;;;;;5034185;28;19936;-79
2021/08/09 13:04:05;;;;;;;;;;;28.40;41.40;;;;;;5036015;28;19913;-79
2021/08/09 13:06:30;;;;;;;;;;;29.00;41.00;;;;;;5017465;28;20375;-79
2021/08/09 13:08:56;;;;;;;;;;;29.30;40.70;;;;;;5041639;28;20254;-79
2021/08/09 13:11:21;;;;;;;;;;;30.00;40.30;;;;;;5036848;28;19936;-78
2021/08/09 13:13:47;;;;;;;;;;;30.50;39.80;;;;;;5046114;28;19913;-79
2021/08/09 13:16:17;;;;;;;;;;;30.90;39.60;;;;;;5051857;28;20004;-79
2021/08/09 13:18:42;;;;;;;;;;;31.20;39.40;;;;;;5018507;28;19920;-79
2021/08/09 13:21:08;;;;;;;;;;;31.10;39.40;;;;;;5041869;28;20290;-79
2021/08/09 13:23:33;;;;;;;;;;;30.60;39.60;;;;;;5039282;28;19920;-78
2021/08/09 13:26:01;;;;;;;;;;;30.20;40.00;;;;;;5035575;28;19964;-78
2021/08/09 13:28:27;;;;;;;;;;;30.00;40.30;;;;;;5055613;28;19909;-79
2021/08/09 13:30:52;;;;;;;;;;;30.30;40.30;;;;;;5049940;28;19959;-78
2021/08/09 13:33:18;;;;;;;;;;;30.00;40.20;;;;;;5019405;28;19917;-78
2021/08/09 13:35:43;;;;;;;;;;;29.40;40.60;;;;;;5030626;28;19914;-79
2021/08/09 13:38:08;;;;;;;;;;;29.20;41.00;;;;;;5045499;28;19917;-78
2021/08/09 13:40:34;;;;;;;;;;;28.80;41.20;;;;;;5044809;28;19995;-79
2021/08/09 13:42:59;;;;;;;;;;;28.50;41.50;;;;;;5042292;28;19939;-78
2021/08/09 13:45:26;;;;;;;;;;;28.20;41.60;;;;;;5047069;28;19963;-78
2021/08/09 13:47:51;;;;;;;;;;;28.00;41.80;;;;;;5036111;28;19913;-78
2021/08/09 13:50:17;;;;;;;;;;;28.00;42.00;;;;;;5036517;28;19913;-78
2021/08/09 13:52:42;;;;;;;;;;;27.90;42.10;;;;;;5037390;28;20292;-78
2021/08/09 13:55:08;;;;;;;;;;;28.00;42.10;;;;;;5044574;28;19923;-78
2021/08/09 13:57:33;;;;;;;;;;;28.00;42.20;;;;;;5055806;28;19913;-79
2021/08/09 13:59:58;;;;;;;;;;;28.00;42.10;;;;;;5016682;28;19997;-78
2021/08/09 14:02:26;;;;;;;;;;;28.30;42.10;;;;;;5035465;28;19913;-79
2021/08/09 14:04:51;;;;;;;;;;;28.60;41.70;;;;;;5046791;28;19920;-79
2021/08/09 14:07:16;;;;;;;;;;;28.40;41.70;;;;;;5035970;28;20292;-79
2021/08/09 14:09:42;;;;;;;;;;;28.10;42.00;;;;;;5034461;28;19914;-79
2021/08/09 14:12:07;;;;;;;;;;;28.10;42.10;;;;;;5041214;28;19917;-78
2021/08/09 14:14:33;;;;;;;;;;;28.10;42.20;;;;;;5035669;28;19909;-81
2021/08/09 14:17:02;;;;;;;;;;;28.40;42.20;;;;;;5043550;28;19916;-85
2021/08/09 14:19:27;;;;;;;;;;;28.40;42.10;;;;;;5022224;28;19913;-85
2021/08/09 14:21:53;;;;;;;;;;;28.20;42.10;;;;;;5034684;28;19967;-86
2021/08/09 14:24:18;;;;;;;;;;;27.80;42.30;;;;;;5046058;28;19919;-85
2021/08/09 14:26:44;;;;;;;;;;;27.50;42.70;;;;;;5036966;28;19923;-85
2021/08/09 14:29:09;;;;;;;;;;;27.20;43.00;;;;;;5047100;28;19929;-85
2021/08/09 14:31:35;;;;;;;;;;;26.80;43.20;;;;;;5025995;28;20393;-85
2021/08/09 14:34:01;;;;;;;;;;;26.60;43.50;;;;;;5019705;28;19941;-85
2021/08/09 14:36:26;;;;;;;;;;;26.40;43.60;;;;;;5034767;28;19967;-85
2021/08/09 14:38:52;;;;;;;;;;;26.30;43.90;;;;;;5051432;28;19920;-85
2021/08/09 14:41:17;;;;;;;;;;;26.00;44.00;;;;;;5018900;28;19920;-86
2021/08/09 14:43:43;;;;;;;;;;;25.80;44.40;;;;;;5036512;28;19959;-85